Time;durP1;ratioP1;P1;durP2;ratioP2;P2;SDS_P1;SDS_P2;PMS_P1;PMS_P2;Temp;Humidity;BMP_temperature;BMP_pressure;BME280_temperature;BME280_humidity;BME280_pressure;Samples;Min_cycle;Max_cycle;Signal;HPM_P1;HPM_P2
2023/08/13 00:04:54;;;;;;;16.63;7.07;;;;;;;-147.65;100.00;57646.63;10444279;28;20051;-78
2023/08/13 00:09:55;;;;;;;15.00;6.72;;;;;;;-147.65;100.00;57646.63;10435764;28;20040;-80
2023/08/13 00:14:55;;;;;;;13.88;7.10;;;;;;;-147.65;100.00;57646.63;10438244;28;20037;-79
2023/08/13 00:19:56;;;;;;;18.02;6.30;;;;;;;-147.65;100.00;57646.63;10425549;28;20116;-79
2023/08/13 00:24:57;;;;;;;17.48;8.15;;;;;;;-147.65;100.00;57646.63;10440212;28;20060;-78
2023/08/13 00:29:57;;;;;;;14.32;8.35;;;;;;;-147.65;100.00;57646.63;10441551;28;20037;-78
2023/08/13 00:34:57;;;;;;;15.27;6.07;;;;;;;-147.65;100.00;57646.63;10442935;28;20060;-79
2023/08/13 00:39:58;;;;;;;11.23;6.00;;;;;;;-147.65;100.00;57646.63;10438929;28;20043;-78
2023/08/13 00:44:58;;;;;;;16.20;6.07;;;;;;;-147.65;100.00;57646.63;10435896;28;20045;-79
2023/08/13 00:49:59;;;;;;;22.50;7.03;;;;;;;-147.65;100.00;57646.63;10481416;28;20043;-80
2023/08/13 00:55:00;;;;;;;18.33;6.93;;;;;;;-147.65;100.00;57646.63;10481495;28;20047;-79
2023/08/13 01:00:00;;;;;;;15.73;7.70;;;;;;;-147.65;100.00;57646.63;10476922;28;20190;-79
2023/08/13 01:05:01;;;;;;;28.48;7.53;;;;;;;-147.65;100.00;57646.63;10474953;28;20432;-79
2023/08/13 01:10:18;;;;;;;22.52;7.05;;;;;;;-147.65;100.00;57646.63;10473964;28;20036;-79
2023/08/13 01:15:22;;;;;;;17.42;7.78;;;;;;;-147.65;100.00;57646.63;10501479;28;20107;-80
2023/08/13 01:20:33;;;;;;;18.00;7.95;;;;;;;-147.65;100.00;57646.63;10465539;28;20480;-79
2023/08/13 01:25:33;;;;;;;13.35;7.05;;;;;;;-147.65;100.00;57646.63;10486586;28;20048;-78
2023/08/13 01:30:41;;;;;;;14.30;6.15;;;;;;;-147.65;100.00;57646.63;10463225;28;20048;-79
2023/08/13 01:35:42;;;;;;;21.13;6.88;;;;;;;-147.65;100.00;57646.63;10450552;28;20040;-79
2023/08/13 01:40:42;;;;;;;13.93;5.47;;;;;;;-147.65;100.00;57646.63;10478649;28;20476;-79
2023/08/13 01:45:43;;;;;;;12.05;6.40;;;;;;;-147.65;100.00;57646.63;10483443;28;20097;-79
2023/08/13 01:50:44;;;;;;;17.70;8.13;;;;;;;-147.65;100.00;57646.63;10480721;28;20040;-80
2023/08/13 01:55:44;;;;;;;16.90;7.22;;;;;;;-147.65;100.00;57646.63;10464568;28;20396;-78
2023/08/13 02:00:45;;;;;;;14.82;7.20;;;;;;;-147.65;100.00;57646.63;10481846;28;20033;-79
2023/08/13 02:05:45;;;;;;;24.23;9.80;;;;;;;-147.65;100.00;57646.63;10478710;28;20040;-78
2023/08/13 02:10:46;;;;;;;18.90;7.82;;;;;;;-147.65;100.00;57646.63;10485567;28;20044;-79
2023/08/13 02:15:46;;;;;;;15.80;6.97;;;;;;;-147.65;100.00;57646.63;10471556;28;20064;-79
2023/08/13 02:20:47;;;;;;;13.02;5.63;;;;;;;-147.65;100.00;57646.63;10488709;28;20495;-79
2023/08/13 02:25:47;;;;;;;12.40;6.38;;;;;;;-147.65;100.00;57646.63;10488382;28;20036;-79
2023/08/13 02:30:51;;;;;;;14.05;5.43;;;;;;;-147.65;100.00;57646.63;10485384;28;20401;-80
2023/08/13 02:35:52;;;;;;;15.40;6.00;;;;;;;-147.65;100.00;57646.63;10465489;28;20037;-80
2023/08/13 02:40:52;;;;;;;14.15;6.07;;;;;;;-147.65;100.00;57646.63;10463297;28;20061;-79
2023/08/13 02:45:53;;;;;;;12.55;5.95;;;;;;;-147.65;100.00;57646.63;10487255;28;20178;-79
2023/08/13 02:50:53;;;;;;;14.23;6.60;;;;;;;-147.65;100.00;57646.63;10473645;28;20056;-80
2023/08/13 02:55:54;;;;;;;16.13;5.93;;;;;;;-147.65;100.00;57646.63;10435027;28;20537;-78
2023/08/13 03:00:54;;;;;;;14.85;6.78;;;;;;;-147.65;100.00;57646.63;10428669;28;20048;-79
2023/08/13 03:05:55;;;;;;;25.98;6.85;;;;;;;-147.65;100.00;57646.63;10443814;28;20052;-79
2023/08/13 03:10:55;;;;;;;18.30;7.45;;;;;;;-147.65;100.00;57646.63;10428006;28;20036;-80
2023/08/13 03:15:56;;;;;;;12.45;6.32;;;;;;;-147.65;100.00;57646.63;10444484;28;20112;-78
2023/08/13 03:20:56;;;;;;;13.43;6.95;;;;;;;-147.65;100.00;57646.63;10478833;28;20441;-80
2023/08/13 03:25:57;;;;;;;18.42;8.30;;;;;;;-147.65;100.00;57646.63;10444824;28;20045;-79
2023/08/13 03:30:59;;;;;;;21.65;6.70;;;;;;;-147.65;100.00;57646.63;10428086;28;20037;-79
2023/08/13 03:35:59;;;;;;;14.43;7.20;;;;;;;-147.65;100.00;57646.63;10440098;28;20044;-78
2023/08/13 03:41:00;;;;;;;13.38;8.13;;;;;;;-147.65;100.00;57646.63;10433381;28;20041;-79
2023/08/13 03:46:01;;;;;;;16.60;6.47;;;;;;;-147.65;100.00;57646.63;10440404;28;20041;-79
2023/08/13 03:51:05;;;;;;;20.15;7.45;;;;;;;-147.65;100.00;57646.63;10431085;28;20130;-79
2023/08/13 03:56:06;;;;;;;19.73;8.13;;;;;;;-147.65;100.00;57646.63;10482406;28;20036;-79
2023/08/13 04:01:07;;;;;;;20.23;7.80;;;;;;;-147.65;100.00;57646.63;10467752;28;20024;-79
2023/08/13 04:06:08;;;;;;;19.60;7.85;;;;;;;-147.65;100.00;57646.63;10472248;28;20040;-79
2023/08/13 04:11:08;;;;;;;16.30;7.78;;;;;;;-147.65;100.00;57646.63;10474657;28;20036;-79
2023/08/13 04:16:09;;;;;;;15.30;7.85;;;;;;;-147.65;100.00;57646.63;10480501;28;20032;-78
2023/08/13 04:21:09;;;;;;;15.13;7.82;;;;;;;-147.65;100.00;57646.63;10515830;28;20060;-79
2023/08/13 04:26:10;;;;;;;17.27;7.80;;;;;;;-147.65;100.00;57646.63;10467092;28;20124;-79
2023/08/13 04:31:10;;;;;;;17.67;8.35;;;;;;;-147.65;100.00;57646.63;10453945;28;20040;-80
2023/08/13 04:36:11;;;;;;;17.40;7.93;;;;;;;-147.65;100.00;57646.63;10463656;28;20098;-80
2023/08/13 04:41:11;;;;;;;17.65;7.70;;;;;;;-147.65;100.00;57646.63;10466032;28;20037;-80
2023/08/13 04:46:13;;;;;;;23.20;7.43;;;;;;;-147.65;100.00;57646.63;10468621;28;20068;-79
2023/08/13 04:51:15;;;;;;;16.35;7.75;;;;;;;-147.65;100.00;57646.63;10473297;28;20113;-79
2023/08/13 04:56:16;;;;;;;;;;;;;;;-147.65;100.00;57646.63;10460554;28;20048;-76
2023/08/13 05:01:16;;;;;;;18.08;8.75;;;;;;;-147.65;100.00;57646.63;10479512;28;19917;-76
2023/08/13 05:06:17;;;;;;;17.35;6.93;;;;;;;-147.65;100.00;57646.63;10475097;28;20091;-78
2023/08/13 05:11:17;;;;;;;21.80;7.68;;;;;;;-147.65;100.00;57646.63;10459506;28;20056;-77
2023/08/13 05:16:18;;;;;;;17.98;9.23;;;;;;;-147.65;100.00;57646.63;10498145;28;20090;-76
2023/08/13 05:21:18;;;;;;;15.68;6.95;;;;;;;-147.65;100.00;57646.63;10480109;28;20033;-77
2023/08/13 05:26:19;;;;;;;80.55;14.52;;;;;;;-147.65;100.00;57646.63;10487422;28;20614;-78
2023/08/13 05:31:20;;;;;;;15.80;6.18;;;;;;;-147.65;100.00;57646.63;10477944;28;20041;-79
2023/08/13 05:36:21;;;;;;;14.95;6.63;;;;;;;-147.65;100.00;57646.63;10476561;28;20049;-79
2023/08/13 05:41:21;;;;;;;15.15;6.15;;;;;;;-147.65;100.00;57646.63;10514148;28;20025;-77
2023/08/13 05:46:22;;;;;;;25.55;8.98;;;;;;;-147.65;100.00;57646.63;10487655;28;20048;-78
2023/08/13 05:51:22;;;;;;;16.77;6.30;;;;;;;-147.65;100.00;57646.63;10464801;28;20412;-77
2023/08/13 05:56:23;;;;;;;10.40;4.57;;;;;;;-147.65;100.00;57646.63;10488224;28;20033;-77
2023/08/13 06:01:23;;;;;;;13.57;5.97;;;;;;;-147.65;100.00;57646.63;10461617;28;20388;-78
2023/08/13 06:06:24;;;;;;;21.08;4.32;;;;;;;-147.65;100.00;57646.63;10475975;28;20123;-77
2023/08/13 06:11:25;;;;;;;10.75;3.97;;;;;;;-147.65;100.00;57646.63;10469960;28;20041;-76
2023/08/13 06:16:25;;;;;;;12.23;4.63;;;;;;;-147.65;100.00;57646.63;10485682;28;20064;-78
2023/08/13 06:21:26;;;;;;;8.50;4.07;;;;;;;-147.65;100.00;57646.63;10484053;28;20043;-79
2023/08/13 06:26:26;;;;;;;13.37;4.20;;;;;;;-147.65;100.00;57646.63;10483805;28;20052;-79
2023/08/13 06:31:27;;;;;;;13.20;3.87;;;;;;;-147.65;100.00;57646.63;10487175;28;20040;-79
2023/08/13 06:36:27;;;;;;;10.10;3.47;;;;;;;-147.65;100.00;57646.63;10474794;28;20124;-79
2023/08/13 06:41:28;;;;;;;6.37;3.53;;;;;;;-147.65;100.00;57646.63;10480450;28;20028;-79
2023/08/13 06:46:28;;;;;;;8.43;2.90;;;;;;;-147.65;100.00;57646.63;10484410;28;20583;-80
2023/08/13 06:51:29;;;;;;;9.67;2.87;;;;;;;-147.65;100.00;57646.63;10478399;28;20420;-79
2023/08/13 06:56:30;;;;;;;6.30;1.90;;;;;;;-147.65;100.00;57646.63;10482699;28;20056;-79
2023/08/13 07:01:31;;;;;;;7.10;2.88;;;;;;;-147.65;100.00;57646.63;10507936;28;20137;-80
2023/08/13 07:06:31;;;;;;;11.57;2.67;;;;;;;-147.65;100.00;57646.63;10478531;28;20029;-80
2023/08/13 07:11:32;;;;;;;8.13;2.73;;;;;;;-147.65;100.00;57646.63;10494096;28;20055;-79
2023/08/13 07:16:34;;;;;;;6.90;2.55;;;;;;;-147.65;100.00;57646.63;10518398;28;20480;-79
2023/08/13 07:21:36;;;;;;;5.75;2.92;;;;;;;-147.65;100.00;57646.63;10517444;28;20071;-80
2023/08/13 07:26:36;;;;;;;6.57;2.53;;;;;;;-147.65;100.00;57646.63;10465314;28;20044;-80
2023/08/13 07:31:38;;;;;;;7.07;3.30;;;;;;;-147.65;100.00;57646.63;10479259;28;20051;-80
2023/08/13 07:36:39;;;;;;;14.23;4.28;;;;;;;-147.65;100.00;57646.63;10445519;28;20590;-81
2023/08/13 07:41:41;;;;;;;10.73;2.88;;;;;;;-147.65;100.00;57646.63;10472997;28;20120;-79
2023/08/13 07:46:42;;;;;;;8.30;3.40;;;;;;;-147.65;100.00;57646.63;10481995;28;20048;-78
2023/08/13 07:51:43;;;;;;;11.07;5.00;;;;;;;-147.65;100.00;57646.63;10500681;28;20275;-78
2023/08/13 07:56:44;;;;;;;;;;;;;;;-147.65;100.00;57646.63;10503950;28;20045;-79
2023/08/13 08:01:44;;;;;;;11.30;2.83;;;;;;;-147.65;100.00;57646.63;10484858;28;19930;-78
2023/08/13 08:06:45;;;;;;;8.73;3.03;;;;;;;-147.65;100.00;57646.63;10468356;28;20044;-78
2023/08/13 08:11:45;;;;;;;6.23;2.60;;;;;;;-147.65;100.00;57646.63;10486389;28;20037;-78
2023/08/13 08:16:46;;;;;;;5.70;2.30;;;;;;;-147.65;100.00;57646.63;10473182;28;20384;-78
2023/08/13 08:21:46;;;;;;;7.13;2.53;;;;;;;-147.65;100.00;57646.63;10511702;28;20037;-80
2023/08/13 08:26:47;;;;;;;10.10;3.43;;;;;;;-147.65;100.00;57646.63;10484313;28;20121;-80
2023/08/13 08:31:47;;;;;;;10.63;2.30;;;;;;;-147.65;100.00;57646.63;10477188;28;20067;-77
2023/08/13 08:36:48;;;;;;;10.37;4.03;;;;;;;-147.65;100.00;57646.63;10483982;28;20059;-76
2023/08/13 08:41:49;;;;;;;13.90;3.28;;;;;;;-147.65;100.00;57646.63;10461771;28;20059;-76
2023/08/13 08:46:53;;;;;;;4.50;1.83;;;;;;;-147.65;100.00;57646.63;10450896;28;20072;-76
2023/08/13 08:51:53;;;;;;;7.35;2.63;;;;;;;-147.65;100.00;57646.63;10491662;28;20147;-77
2023/08/13 08:56:54;;;;;;;11.13;2.37;;;;;;;-147.65;100.00;57646.63;10483594;28;20105;-75
2023/08/13 09:01:54;;;;;;;7.47;3.03;;;;;;;-147.65;100.00;57646.63;10443798;28;20037;-75
2023/08/13 09:07:03;;;;;;;8.17;3.17;;;;;;;-147.65;100.00;57646.63;10477182;28;20174;-77
2023/08/13 09:12:03;;;;;;;9.50;4.00;;;;;;;-147.65;100.00;57646.63;10446076;28;20163;-77
2023/08/13 09:17:04;;;;;;;6.07;2.30;;;;;;;-147.65;100.00;57646.63;10483898;28;20392;-75
2023/08/13 09:22:06;;;;;;;8.27;2.50;;;;;;;-147.65;100.00;57646.63;10482121;28;20115;-76
2023/08/13 09:27:06;;;;;;;8.45;2.85;;;;;;;-147.65;100.00;57646.63;10513805;28;20052;-76
2023/08/13 09:32:07;;;;;;;6.50;3.17;;;;;;;-147.65;100.00;57646.63;10479143;28;20048;-76
2023/08/13 09:37:07;;;;;;;10.90;2.90;;;;;;;-147.65;100.00;57646.63;10480349;28;20391;-77
2023/08/13 09:42:08;;;;;;;8.00;2.37;;;;;;;-147.65;100.00;57646.63;10452881;28;20444;-78
2023/08/13 09:47:08;;;;;;;12.93;4.47;;;;;;;-147.65;100.00;57646.63;10470972;28;20128;-78
2023/08/13 09:52:09;;;;;;;14.17;3.53;;;;;;;-147.65;100.00;57646.63;10427327;28;20045;-77
2023/08/13 09:57:10;;;;;;;11.83;4.70;;;;;;;-147.65;100.00;57646.63;10438486;28;20183;-77
2023/08/13 10:02:13;;;;;;;11.70;4.27;;;;;;;-147.65;100.00;57646.63;10406612;28;20093;-78
2023/08/13 10:07:13;;;;;;;8.65;2.78;;;;;;;-147.65;100.00;57646.63;10416016;28;20045;-78
2023/08/13 10:12:14;;;;;;;6.10;2.97;;;;;;;-147.65;100.00;57646.63;10423136;28;20053;-75
2023/08/13 10:17:17;;;;;;;7.70;2.67;;;;;;;-147.65;100.00;57646.63;10422008;28;20033;-78
2023/08/13 10:22:37;;;;;;;9.90;2.72;;;;;;;-147.65;100.00;57646.63;10421734;28;20040;-78
2023/08/13 10:27:38;;;;;;;8.40;2.33;;;;;;;-147.65;100.00;57646.63;10471036;28;20036;-77
2023/08/13 10:32:50;;;;;;;9.32;3.30;;;;;;;-147.65;100.00;57646.63;10451413;28;20033;-77
2023/08/13 10:38:01;;;;;;;9.63;2.72;;;;;;;-147.65;100.00;57646.63;10453431;28;20180;-77
2023/08/13 10:43:04;;;;;;;8.50;2.63;;;;;;;-147.65;100.00;57646.63;10488152;28;20119;-77
2023/08/13 10:48:05;;;;;;;7.97;2.58;;;;;;;-147.65;100.00;57646.63;10482998;28;20047;-79
2023/08/13 10:53:08;;;;;;;5.78;2.50;;;;;;;-147.65;100.00;57646.63;10446588;28;20071;-79
2023/08/13 10:58:21;;;;;;;8.85;2.70;;;;;;;-147.65;100.00;57646.63;10482849;28;20040;-79
2023/08/13 11:03:23;;;;;;;10.55;2.75;;;;;;;-147.65;100.00;57646.63;10473158;28;20032;-79
2023/08/13 11:08:24;;;;;;;7.13;2.25;;;;;;;-147.65;100.00;57646.63;10471514;28;20523;-78
2023/08/13 11:13:25;;;;;;;7.82;2.58;;;;;;;-147.65;100.00;57646.63;10466550;28;20075;-78
2023/08/13 11:18:25;;;;;;;14.63;2.83;;;;;;;-147.65;100.00;57646.63;10485046;28;20032;-77
2023/08/13 11:23:26;;;;;;;3.83;1.83;;;;;;;-147.65;100.00;57646.63;10470904;28;20435;-79
2023/08/13 11:28:27;;;;;;;5.33;3.40;;;;;;;-147.65;100.00;57646.63;10484610;28;20044;-78
2023/08/13 11:33:28;;;;;;;4.10;2.45;;;;;;;-147.65;100.00;57646.63;10415564;28;20270;-78
2023/08/13 11:38:28;;;;;;;8.43;2.45;;;;;;;-147.65;100.00;57646.63;10442757;28;20397;-78
2023/08/13 11:43:29;;;;;;;;;;;;;;;-147.65;100.00;57646.63;10442655;28;20187;-79
2023/08/13 11:48:31;;;;;;;9.48;3.05;;;;;;;-147.65;100.00;57646.63;10457282;28;19927;-78
2023/08/13 11:53:40;;;;;;;6.90;2.78;;;;;;;-147.65;100.00;57646.63;10442166;28;20428;-79
2023/08/13 11:58:40;;;;;;;8.95;2.45;;;;;;;-147.65;100.00;57646.63;10477670;28;20064;-78
2023/08/13 12:03:43;;;;;;;7.72;2.22;;;;;;;-147.65;100.00;57646.63;10464564;28;20048;-78
2023/08/13 12:08:45;;;;;;;11.13;4.32;;;;;;;-147.65;100.00;57646.63;10480794;28;20033;-76
2023/08/13 12:13:45;;;;;;;6.05;2.05;;;;;;;-147.65;100.00;57646.63;10471863;28;20037;-79
2023/08/13 12:18:46;;;;;;;5.07;2.10;;;;;;;-147.65;100.00;57646.63;10491675;28;20041;-76
2023/08/13 12:23:46;;;;;;;9.00;3.17;;;;;;;-147.65;100.00;57646.63;10464167;28;20043;-77
2023/08/13 12:28:50;;;;;;;15.43;2.80;;;;;;;-147.65;100.00;57646.63;10481861;28;20286;-77
2023/08/13 12:33:53;;;;;;;10.88;2.92;;;;;;;-147.65;100.00;57646.63;10455816;28;20041;-77
2023/08/13 12:38:54;;;;;;;7.15;2.75;;;;;;;-147.65;100.00;57646.63;10456016;28;20123;-78
2023/08/13 12:43:54;;;;;;;6.47;2.73;;;;;;;-147.65;100.00;57646.63;10480260;28;20059;-77
2023/08/13 12:48:55;;;;;;;5.33;2.60;;;;;;;-147.65;100.00;57646.63;10471145;28;20043;-77
2023/08/13 12:53:55;;;;;;;7.60;3.07;;;;;;;-147.65;100.00;57646.63;10446838;28;20040;-76
2023/08/13 12:58:56;;;;;;;5.97;2.73;;;;;;;-147.65;100.00;57646.63;10457237;28;20037;-76
2023/08/13 13:03:56;;;;;;;7.70;2.97;;;;;;;-147.65;100.00;57646.63;10481687;28;20033;-77
2023/08/13 13:08:57;;;;;;;10.47;2.53;;;;;;;-147.65;100.00;57646.63;10466460;28;20751;-76
2023/08/13 13:13:57;;;;;;;9.20;3.03;;;;;;;-147.65;100.00;57646.63;10449213;28;20044;-76
2023/08/13 13:18:58;;;;;;;7.20;3.07;;;;;;;-147.65;100.00;57646.63;10471099;28;20119;-77
2023/08/13 13:23:59;;;;;;;6.37;2.70;;;;;;;-147.65;100.00;57646.63;10481747;28;20050;-79
2023/08/13 13:28:59;;;;;;;6.23;2.37;;;;;;;-147.65;100.00;57646.63;10482335;28;20492;-77
2023/08/13 13:34:00;;;;;;;4.77;2.10;;;;;;;-147.65;100.00;57646.63;10492082;28;20040;-76
2023/08/13 13:39:00;;;;;;;6.37;2.67;;;;;;;-147.65;100.00;57646.63;10464538;28;20128;-78
2023/08/13 13:44:01;;;;;;;4.40;2.20;;;;;;;-147.65;100.00;57646.63;10480110;28;20503;-77
2023/08/13 13:49:01;;;;;;;6.33;2.70;;;;;;;-147.65;100.00;57646.63;10462754;28;20040;-76
2023/08/13 13:54:06;;;;;;;6.63;2.30;;;;;;;-147.65;100.00;57646.63;10460103;28;20271;-77
2023/08/13 13:59:06;;;;;;;6.75;2.22;;;;;;;-147.65;100.00;57646.63;10474658;28;20040;-79
2023/08/13 14:04:07;;;;;;;3.37;1.90;;;;;;;-147.65;100.00;57646.63;10476575;28;20041;-76
2023/08/13 14:09:09;;;;;;;10.83;4.13;;;;;;;-147.65;100.00;57646.63;10468381;28;20043;-80
2023/08/13 14:14:10;;;;;;;13.25;8.82;;;;;;;-147.65;100.00;57646.63;10444605;28;20049;-78
2023/08/13 14:19:10;;;;;;;6.77;2.17;;;;;;;-147.65;100.00;57646.63;10442012;28;20460;-76
2023/08/13 14:24:11;;;;;;;5.33;2.90;;;;;;;-147.65;100.00;57646.63;10415069;28;20055;-75
2023/08/13 14:29:11;;;;;;;5.80;2.87;;;;;;;-147.65;100.00;57646.63;10443591;28;20503;-75
2023/08/13 14:34:12;;;;;;;6.90;2.30;;;;;;;-147.65;100.00;57646.63;10419185;28;20064;-76
2023/08/13 14:39:13;;;;;;;11.07;4.07;;;;;;;-147.65;100.00;57646.63;10423508;28;20039;-75
2023/08/13 14:44:15;;;;;;;5.90;3.00;;;;;;;-147.65;100.00;57646.63;10447735;28;20033;-75
2023/08/13 14:49:15;;;;;;;5.38;1.85;;;;;;;-147.65;100.00;57646.63;10446444;28;20040;-76
2023/08/13 14:54:16;;;;;;;11.90;2.20;;;;;;;-147.65;100.00;57646.63;10446751;28;20489;-78
2023/08/13 14:59:16;;;;;;;4.40;1.47;;;;;;;-147.65;100.00;57646.63;10446090;28;20131;-77
2023/08/13 15:04:17;;;;;;;5.80;2.13;;;;;;;-147.65;100.00;57646.63;10467094;28;20046;-76
2023/08/13 15:09:17;;;;;;;9.52;4.85;;;;;;;-147.65;100.00;57646.63;10485075;28;20546;-76
2023/08/13 15:14:18;;;;;;;6.80;2.57;;;;;;;-147.65;100.00;57646.63;10488239;28;20070;-76
2023/08/13 15:19:19;;;;;;;7.00;1.87;;;;;;;-147.65;100.00;57646.63;10483899;28;20041;-77
2023/08/13 15:24:20;;;;;;;5.55;2.50;;;;;;;-147.65;100.00;57646.63;10519637;28;20037;-78
2023/08/13 15:29:20;;;;;;;5.83;2.70;;;;;;;-147.65;100.00;57646.63;10486809;28;20033;-79
2023/08/13 15:34:27;;;;;;;5.30;1.77;;;;;;;-147.65;100.00;57646.63;10486718;28;20526;-77
2023/08/13 15:39:27;;;;;;;8.63;1.70;;;;;;;-147.65;100.00;57646.63;10468076;28;20123;-76
2023/08/13 15:44:28;;;;;;;5.03;1.97;;;;;;;-147.65;100.00;57646.63;10485667;28;20502;-79
2023/08/13 15:49:28;;;;;;;6.57;1.80;;;;;;;-147.65;100.00;57646.63;10485214;28;20029;-78
2023/08/13 15:54:29;;;;;;;5.53;1.63;;;;;;;-147.65;100.00;57646.63;10483934;28;20492;-78
2023/08/13 15:59:30;;;;;;;10.02;2.55;;;;;;;-147.65;100.00;57646.63;10484538;28;20071;-77
2023/08/13 16:04:30;;;;;;;5.63;2.33;;;;;;;-147.65;100.00;57646.63;10484890;28;20045;-77
2023/08/13 16:09:31;;;;;;;7.97;2.10;;;;;;;-147.65;100.00;57646.63;10483442;28;20040;-76
2023/08/13 16:14:31;;;;;;;5.47;2.50;;;;;;;-147.65;100.00;57646.63;10465897;28;20504;-76
2023/08/13 16:19:32;;;;;;;5.20;1.60;;;;;;;-147.65;100.00;57646.63;10482308;28;20036;-79
2023/08/13 16:24:33;;;;;;;3.57;1.87;;;;;;;-147.65;100.00;57646.63;10517345;28;20036;-79
2023/08/13 16:29:33;;;;;;;5.93;2.17;;;;;;;-147.65;100.00;57646.63;10515574;28;20036;-79
2023/08/13 16:34:34;;;;;;;11.17;2.93;;;;;;;-147.65;100.00;57646.63;10466489;28;20040;-79
2023/08/13 16:39:34;;;;;;;5.37;1.63;;;;;;;-147.65;100.00;57646.63;10466493;28;20035;-78
2023/08/13 16:44:35;;;;;;;5.57;1.77;;;;;;;-147.65;100.00;57646.63;10482505;28;20032;-76
2023/08/13 16:49:35;;;;;;;5.30;2.53;;;;;;;-147.65;100.00;57646.63;10480785;28;20042;-76
2023/08/13 16:54:36;;;;;;;8.13;3.37;;;;;;;-147.65;100.00;57646.63;10481820;28;20412;-76
2023/08/13 16:59:36;;;;;;;7.90;2.53;;;;;;;-147.65;100.00;57646.63;10484889;28;20036;-78
2023/08/13 17:04:37;;;;;;;3.97;1.60;;;;;;;-147.65;100.00;57646.63;10481103;28;20047;-79
2023/08/13 17:09:37;;;;;;;4.60;2.50;;;;;;;-147.65;100.00;57646.63;10497874;28;20069;-79
2023/08/13 17:14:38;;;;;;;11.33;2.17;;;;;;;-147.65;100.00;57646.63;10482821;28;20127;-78
2023/08/13 17:19:38;;;;;;;8.13;2.33;;;;;;;-147.65;100.00;57646.63;10463879;28;20036;-79
2023/08/13 17:24:39;;;;;;;6.20;2.07;;;;;;;-147.65;100.00;57646.63;10464560;28;20506;-79
2023/08/13 17:29:40;;;;;;;3.63;1.60;;;;;;;-147.65;100.00;57646.63;10482764;28;20044;-78
2023/08/13 17:34:41;;;;;;;6.27;2.93;;;;;;;-147.65;100.00;57646.63;10483508;28;20040;-79
2023/08/13 17:39:42;;;;;;;10.98;2.25;;;;;;;-147.65;100.00;57646.63;10468944;28;20094;-79
2023/08/13 17:44:42;;;;;;;8.63;1.90;;;;;;;-147.65;100.00;57646.63;10489133;28;20078;-78
2023/08/13 17:49:43;;;;;;;5.50;2.53;;;;;;;-147.65;100.00;57646.63;10489827;28;20388;-77
2023/08/13 17:54:43;;;;;;;10.55;2.75;;;;;;;-147.65;100.00;57646.63;10490452;28;20048;-78
2023/08/13 17:59:44;;;;;;;6.67;2.20;;;;;;;-147.65;100.00;57646.63;10489688;28;20035;-78
2023/08/13 18:04:46;;;;;;;7.80;2.97;;;;;;;-147.65;100.00;57646.63;10471861;28;20036;-77
2023/08/13 18:09:46;;;;;;;10.20;3.58;;;;;;;-147.65;100.00;57646.63;10488801;28;20047;-78
2023/08/13 18:14:47;;;;;;;9.60;3.50;;;;;;;-147.65;100.00;57646.63;10522937;28;20519;-78
2023/08/13 18:19:47;;;;;;;8.60;4.37;;;;;;;-147.65;100.00;57646.63;10488972;28;20044;-78
2023/08/13 18:24:48;;;;;;;10.02;4.00;;;;;;;-147.65;100.00;57646.63;10489909;28;20101;-79
2023/08/13 18:29:48;;;;;;;8.15;3.60;;;;;;;-147.65;100.00;57646.63;10504928;28;20422;-78
2023/08/13 18:34:49;;;;;;;5.88;2.90;;;;;;;-147.65;100.00;57646.63;10487322;28;20041;-78
2023/08/13 18:39:50;;;;;;;7.90;3.53;;;;;;;-147.65;100.00;57646.63;10487810;28;20060;-78
2023/08/13 18:44:50;;;;;;;10.73;3.85;;;;;;;-147.65;100.00;57646.63;10454582;28;20124;-78
2023/08/13 18:49:51;;;;;;;9.52;4.40;;;;;;;-147.65;100.00;57646.63;10469707;28;20041;-78
2023/08/13 18:54:52;;;;;;;14.23;4.43;;;;;;;-147.65;100.00;57646.63;10487899;28;20093;-77
2023/08/13 18:59:52;;;;;;;8.50;5.20;;;;;;;-147.65;100.00;57646.63;10486623;28;20037;-78
2023/08/13 19:04:53;;;;;;;12.45;4.50;;;;;;;-147.65;100.00;57646.63;10485506;28;20075;-77
2023/08/13 19:09:53;;;;;;;11.70;5.43;;;;;;;-147.65;100.00;57646.63;10481456;28;20047;-77
2023/08/13 19:14:56;;;;;;;11.07;5.25;;;;;;;-147.65;100.00;57646.63;10475642;28;20040;-83
2023/08/13 19:19:56;;;;;;;14.60;4.70;;;;;;;-147.65;100.00;57646.63;10478075;28;20094;-81
2023/08/13 19:24:57;;;;;;;17.23;6.18;;;;;;;-147.65;100.00;57646.63;10452974;28;20064;-80
2023/08/13 19:29:58;;;;;;;11.93;4.20;;;;;;;-147.65;100.00;57646.63;10468348;28;20123;-78
2023/08/13 19:34:58;;;;;;;14.75;6.72;;;;;;;-147.65;100.00;57646.63;10461731;28;20040;-79
2023/08/13 19:39:59;;;;;;;19.45;7.25;;;;;;;-147.65;100.00;57646.63;10485775;27;20116;-79
2023/08/13 19:44:59;;;;;;;13.20;6.63;;;;;;;-147.65;100.00;57646.63;10416679;28;20045;-79
2023/08/13 19:50:01;;;;;;;15.77;7.00;;;;;;;-147.65;100.00;57646.63;10443601;28;20041;-77
2023/08/13 19:55:02;;;;;;;14.98;6.22;;;;;;;-147.65;100.00;57646.63;10428920;28;20043;-78
2023/08/13 20:00:04;;;;;;;15.35;7.97;;;;;;;-147.65;100.00;57646.63;10419616;28;20400;-78
2023/08/13 20:05:06;;;;;;;18.70;10.65;;;;;;;-147.65;100.00;57646.63;10437885;28;20091;-77
2023/08/13 20:10:07;;;;;;;11.63;7.20;;;;;;;-147.65;100.00;57646.63;10436033;28;20773;-76
2023/08/13 20:15:07;;;;;;;14.27;6.90;;;;;;;-147.65;100.00;57646.63;10418844;28;20041;-77
2023/08/13 20:20:08;;;;;;;14.65;7.97;;;;;;;-147.65;100.00;57646.63;10440140;28;20379;-77
2023/08/13 20:25:18;;;;;;;16.75;7.75;;;;;;;15.37;100.00;101350.56;10502801;27;1331717;-79
2023/08/13 20:30:19;;;;;;;14.85;6.85;;;;;;;15.22;100.00;101348.25;10548412;28;20140;-78
2023/08/13 20:35:19;;;;;;;15.73;7.78;;;;;;;15.18;100.00;101342.84;10527735;28;20050;-78
2023/08/13 20:40:20;;;;;;;16.50;9.68;;;;;;;15.09;100.00;101336.38;10521012;28;20499;-80
2023/08/13 20:45:20;;;;;;;13.15;7.88;;;;;;;15.02;100.00;101339.63;10538027;28;20044;-79
2023/08/13 20:50:21;;;;;;;17.63;8.88;;;;;;;15.02;100.00;101337.00;10534239;28;20550;-80
2023/08/13 20:55:22;;;;;;;16.80;7.55;;;;;;;15.01;100.00;101340.47;10536601;28;20040;-78
2023/08/13 21:00:22;;;;;;;11.05;8.10;;;;;;;14.95;100.00;101342.88;10531686;28;20036;-81
2023/08/13 21:05:23;;;;;;;25.25;8.57;;;;;;;14.82;100.00;101355.59;10529114;28;20039;-79
2023/08/13 21:10:23;;;;;;;13.32;7.32;;;;;;;14.78;100.00;101350.13;10529775;28;20763;-80
2023/08/13 21:15:24;;;;;;;14.85;7.53;;;;;;;14.70;100.00;101356.84;10525984;28;20044;-80
2023/08/13 21:20:24;;;;;;;14.82;8.07;;;;;;;14.61;100.00;101358.25;10513624;28;20064;-80
2023/08/13 21:25:25;;;;;;;21.27;11.43;;;;;;;14.41;100.00;101348.66;10521474;28;20123;-79
2023/08/13 21:30:25;;;;;;;19.83;9.30;;;;;;;14.43;100.00;101355.81;10552397;28;20441;-79
2023/08/13 21:35:26;;;;;;;19.58;9.02;;;;;;;14.35;100.00;101344.97;10509761;28;20059;-79
2023/08/13 21:40:27;;;;;;;15.25;8.43;;;;;;;14.22;100.00;101343.59;10505562;28;20040;-79
2023/08/13 21:45:28;;;;;;;11.13;8.07;;;;;;;14.23;100.00;101352.38;10523007;28;20127;-78
2023/08/13 21:50:29;;;;;;;19.48;8.07;;;;;;;14.23;100.00;101357.63;10507303;28;20113;-79
2023/08/13 21:55:29;;;;;;;14.68;9.40;;;;;;;14.15;100.00;101356.41;10483191;28;20502;-80
2023/08/13 22:00:30;;;;;;;14.88;9.13;;;;;;;14.10;100.00;101361.50;10524298;28;20044;-79
2023/08/13 22:05:33;;;;;;;12.48;8.35;;;;;;;14.13;100.00;101368.63;10508360;28;20127;-79
2023/08/13 22:10:34;;;;;;;16.02;8.50;;;;;;;14.16;100.00;101368.75;10488930;28;20109;-79
2023/08/13 22:15:34;;;;;;;16.95;9.13;;;;;;;14.07;100.00;101374.53;10497763;28;20051;-80
2023/08/13 22:20:35;;;;;;;27.20;10.20;;;;;;;14.07;100.00;101370.16;10525563;28;20144;-79
2023/08/13 22:25:36;;;;;;;24.60;10.35;;;;;;;13.98;100.00;101366.25;10518665;28;20038;-79
2023/08/13 22:30:36;;;;;;;13.98;10.73;;;;;;;13.86;100.00;101374.53;10498674;28;20040;-79